<?xml version="1.0" encoding="UTF-8" standalone="no" ?>
<gpx xmlns="http://www.topografix.com/GPX/1/1" xmlns:xsi="http://www.w3.org/2001/XMLSchema-instance" xsi:schemaLocation="http://www.topografix.com/GPX/1/1 http://www.topografix.com/GPX/1/1/gpx.xsd" version="1.1" creator="VisuGPX - https://www.visugpx.com">
  <metadata>
    <name>R 047 Dolmens</name>
  </metadata>
  <trk>
    <name><![CDATA[Nouveau parcours]]></name>
    <trkseg>
      <trkpt lat="46.44803" lon="-1.52541">
        <ele>18</ele>
        <time>2012-02-15T13:13:45Z</time>
      </trkpt>
      <trkpt lat="46.44831" lon="-1.52544">
        <ele>18</ele>
        <time>2012-02-15T13:14:38Z</time>
      </trkpt>
      <trkpt lat="46.44857" lon="-1.52536">
        <ele>19</ele>
        <time>2012-02-15T13:14:57Z</time>
      </trkpt>
      <trkpt lat="46.44871" lon="-1.52534">
        <ele>19</ele>
        <time>2012-02-15T13:15:10Z</time>
      </trkpt>
      <trkpt lat="46.44886" lon="-1.52529">
        <ele>19</ele>
        <time>2012-02-15T13:15:22Z</time>
      </trkpt>
      <trkpt lat="46.44901" lon="-1.52526">
        <ele>19</ele>
        <time>2012-02-15T13:15:35Z</time>
      </trkpt>
      <trkpt lat="46.44919" lon="-1.52532">
        <ele>20</ele>
        <time>2012-02-15T13:15:49Z</time>
      </trkpt>
      <trkpt lat="46.44932" lon="-1.52536">
        <ele>20</ele>
        <time>2012-02-15T13:16:07Z</time>
      </trkpt>
      <trkpt lat="46.44946" lon="-1.52538">
        <ele>20</ele>
        <time>2012-02-15T13:16:20Z</time>
      </trkpt>
      <trkpt lat="46.4496" lon="-1.52538">
        <ele>20</ele>
        <time>2012-02-15T13:16:30Z</time>
      </trkpt>
      <trkpt lat="46.44974" lon="-1.52537">
        <ele>20</ele>
        <time>2012-02-15T13:16:41Z</time>
      </trkpt>
      <trkpt lat="46.44987" lon="-1.52534">
        <ele>20</ele>
        <time>2012-02-15T13:16:52Z</time>
      </trkpt>
      <trkpt lat="46.45002" lon="-1.52531">
        <ele>21</ele>
        <time>2012-02-15T13:17:03Z</time>
      </trkpt>
      <trkpt lat="46.45017" lon="-1.5253">
        <ele>21</ele>
        <time>2012-02-15T13:17:13Z</time>
      </trkpt>
      <trkpt lat="46.45033" lon="-1.52528">
        <ele>21</ele>
        <time>2012-02-15T13:17:24Z</time>
      </trkpt>
      <trkpt lat="46.45047" lon="-1.52525">
        <ele>21</ele>
        <time>2012-02-15T13:17:39Z</time>
      </trkpt>
      <trkpt lat="46.4506" lon="-1.52524">
        <ele>22</ele>
        <time>2012-02-15T13:17:51Z</time>
      </trkpt>
      <trkpt lat="46.45074" lon="-1.52523">
        <ele>22</ele>
        <time>2012-02-15T13:18:05Z</time>
      </trkpt>
      <trkpt lat="46.45088" lon="-1.52521">
        <ele>22</ele>
        <time>2012-02-15T13:18:16Z</time>
      </trkpt>
      <trkpt lat="46.45108" lon="-1.5252">
        <ele>22</ele>
        <time>2012-02-15T13:18:29Z</time>
      </trkpt>
      <trkpt lat="46.4513" lon="-1.52519">
        <ele>21</ele>
        <time>2012-02-15T13:18:49Z</time>
      </trkpt>
      <trkpt lat="46.45145" lon="-1.52517">
        <ele>21</ele>
        <time>2012-02-15T13:19:02Z</time>
      </trkpt>
      <trkpt lat="46.45159" lon="-1.52514">
        <ele>21</ele>
        <time>2012-02-15T13:19:12Z</time>
      </trkpt>
      <trkpt lat="46.45179" lon="-1.52512">
        <ele>18</ele>
        <time>2012-02-15T13:19:27Z</time>
      </trkpt>
      <trkpt lat="46.45193" lon="-1.52509">
        <ele>18</ele>
        <time>2012-02-15T13:19:42Z</time>
      </trkpt>
      <trkpt lat="46.45207" lon="-1.52508">
        <ele>17</ele>
        <time>2012-02-15T13:19:55Z</time>
      </trkpt>
      <trkpt lat="46.45221" lon="-1.52508">
        <ele>16</ele>
        <time>2012-02-15T13:20:06Z</time>
      </trkpt>
      <trkpt lat="46.45232" lon="-1.52498">
        <ele>16</ele>
        <time>2012-02-15T13:20:17Z</time>
      </trkpt>
      <trkpt lat="46.45241" lon="-1.52474">
        <ele>16</ele>
        <time>2012-02-15T13:20:30Z</time>
      </trkpt>
      <trkpt lat="46.45243" lon="-1.52453">
        <ele>17</ele>
        <time>2012-02-15T13:20:50Z</time>
      </trkpt>
      <trkpt lat="46.45247" lon="-1.52429">
        <ele>17</ele>
        <time>2012-02-15T13:21:07Z</time>
      </trkpt>
      <trkpt lat="46.45244" lon="-1.52403">
        <ele>17</ele>
        <time>2012-02-15T13:21:25Z</time>
      </trkpt>
      <trkpt lat="46.45234" lon="-1.52386">
        <ele>18</ele>
        <time>2012-02-15T13:21:38Z</time>
      </trkpt>
      <trkpt lat="46.45222" lon="-1.52369">
        <ele>18</ele>
        <time>2012-02-15T13:21:49Z</time>
      </trkpt>
      <trkpt lat="46.45225" lon="-1.52357">
        <ele>18</ele>
        <time>2012-02-15T13:22:02Z</time>
      </trkpt>
      <trkpt lat="46.45245" lon="-1.52359">
        <ele>18</ele>
        <time>2012-02-15T13:22:21Z</time>
      </trkpt>
      <trkpt lat="46.4526" lon="-1.5236">
        <ele>15</ele>
        <time>2012-02-15T13:22:38Z</time>
      </trkpt>
      <trkpt lat="46.45275" lon="-1.5236">
        <ele>14</ele>
        <time>2012-02-15T13:22:53Z</time>
      </trkpt>
      <trkpt lat="46.45291" lon="-1.5236">
        <ele>14</ele>
        <time>2012-02-15T13:23:05Z</time>
      </trkpt>
      <trkpt lat="46.45307" lon="-1.52359">
        <ele>13</ele>
        <time>2012-02-15T13:23:20Z</time>
      </trkpt>
      <trkpt lat="46.45328" lon="-1.52361">
        <ele>13</ele>
        <time>2012-02-15T13:23:38Z</time>
      </trkpt>
      <trkpt lat="46.45342" lon="-1.52362">
        <ele>11</ele>
        <time>2012-02-15T13:23:50Z</time>
      </trkpt>
      <trkpt lat="46.45364" lon="-1.52359">
        <ele>11</ele>
        <time>2012-02-15T13:24:14Z</time>
      </trkpt>
      <trkpt lat="46.45379" lon="-1.52358">
        <ele>10</ele>
        <time>2012-02-15T13:24:29Z</time>
      </trkpt>
      <trkpt lat="46.45393" lon="-1.52358">
        <ele>10</ele>
        <time>2012-02-15T13:24:45Z</time>
      </trkpt>
      <trkpt lat="46.45407" lon="-1.52354">
        <ele>10</ele>
        <time>2012-02-15T13:24:55Z</time>
      </trkpt>
      <trkpt lat="46.45426" lon="-1.5235">
        <ele>10</ele>
        <time>2012-02-15T13:25:05Z</time>
      </trkpt>
      <trkpt lat="46.45444" lon="-1.52345">
        <ele>10</ele>
        <time>2012-02-15T13:25:20Z</time>
      </trkpt>
      <trkpt lat="46.4546" lon="-1.52343">
        <ele>11</ele>
        <time>2012-02-15T13:25:38Z</time>
      </trkpt>
      <trkpt lat="46.45474" lon="-1.52341">
        <ele>11</ele>
        <time>2012-02-15T13:25:51Z</time>
      </trkpt>
      <trkpt lat="46.45492" lon="-1.52336">
        <ele>11</ele>
        <time>2012-02-15T13:26:10Z</time>
      </trkpt>
      <trkpt lat="46.4551" lon="-1.52334">
        <ele>11</ele>
        <time>2012-02-15T13:26:27Z</time>
      </trkpt>
      <trkpt lat="46.45524" lon="-1.52334">
        <ele>12</ele>
        <time>2012-02-15T13:26:40Z</time>
      </trkpt>
      <trkpt lat="46.45538" lon="-1.52334">
        <ele>12</ele>
        <time>2012-02-15T13:26:54Z</time>
      </trkpt>
      <trkpt lat="46.45552" lon="-1.52333">
        <ele>12</ele>
        <time>2012-02-15T13:27:08Z</time>
      </trkpt>
      <trkpt lat="46.45566" lon="-1.52331">
        <ele>12</ele>
        <time>2012-02-15T13:27:21Z</time>
      </trkpt>
      <trkpt lat="46.45582" lon="-1.52329">
        <ele>13</ele>
        <time>2012-02-15T13:27:35Z</time>
      </trkpt>
      <trkpt lat="46.45595" lon="-1.52324">
        <ele>12</ele>
        <time>2012-02-15T13:27:50Z</time>
      </trkpt>
      <trkpt lat="46.45615" lon="-1.52318">
        <ele>12</ele>
        <time>2012-02-15T13:28:10Z</time>
      </trkpt>
      <trkpt lat="46.45631" lon="-1.52313">
        <ele>12</ele>
        <time>2012-02-15T13:28:20Z</time>
      </trkpt>
      <trkpt lat="46.45647" lon="-1.52305">
        <ele>12</ele>
        <time>2012-02-15T13:28:33Z</time>
      </trkpt>
      <trkpt lat="46.45662" lon="-1.523">
        <ele>12</ele>
        <time>2012-02-15T13:28:44Z</time>
      </trkpt>
      <trkpt lat="46.45676" lon="-1.52286">
        <ele>12</ele>
        <time>2012-02-15T13:29:39Z</time>
      </trkpt>
      <trkpt lat="46.45682" lon="-1.52267">
        <ele>12</ele>
        <time>2012-02-15T13:30:00Z</time>
      </trkpt>
      <trkpt lat="46.45685" lon="-1.5224">
        <ele>12</ele>
        <time>2012-02-15T13:30:25Z</time>
      </trkpt>
      <trkpt lat="46.45692" lon="-1.52221">
        <ele>12</ele>
        <time>2012-02-15T13:30:50Z</time>
      </trkpt>
      <trkpt lat="46.45697" lon="-1.52202">
        <ele>12</ele>
        <time>2012-02-15T13:31:05Z</time>
      </trkpt>
      <trkpt lat="46.45701" lon="-1.5218">
        <ele>12</ele>
        <time>2012-02-15T13:31:24Z</time>
      </trkpt>
      <trkpt lat="46.45705" lon="-1.5216">
        <ele>12</ele>
        <time>2012-02-15T13:31:44Z</time>
      </trkpt>
      <trkpt lat="46.45709" lon="-1.52141">
        <ele>12</ele>
        <time>2012-02-15T13:32:07Z</time>
      </trkpt>
      <trkpt lat="46.4571" lon="-1.5212">
        <ele>12</ele>
        <time>2012-02-15T13:32:21Z</time>
      </trkpt>
      <trkpt lat="46.45715" lon="-1.52098">
        <ele>12</ele>
        <time>2012-02-15T13:32:45Z</time>
      </trkpt>
      <trkpt lat="46.45716" lon="-1.52079">
        <ele>13</ele>
        <time>2012-02-15T13:32:58Z</time>
      </trkpt>
      <trkpt lat="46.45718" lon="-1.52057">
        <ele>13</ele>
        <time>2012-02-15T13:33:11Z</time>
      </trkpt>
      <trkpt lat="46.45714" lon="-1.52028">
        <ele>13</ele>
        <time>2012-02-15T13:33:27Z</time>
      </trkpt>
      <trkpt lat="46.45711" lon="-1.52009">
        <ele>14</ele>
        <time>2012-02-15T13:33:49Z</time>
      </trkpt>
      <trkpt lat="46.45707" lon="-1.51985">
        <ele>14</ele>
        <time>2012-02-15T13:33:58Z</time>
      </trkpt>
      <trkpt lat="46.45707" lon="-1.51962">
        <ele>14</ele>
        <time>2012-02-15T13:34:19Z</time>
      </trkpt>
      <trkpt lat="46.45708" lon="-1.51942">
        <ele>14</ele>
        <time>2012-02-15T13:34:32Z</time>
      </trkpt>
      <trkpt lat="46.45709" lon="-1.51915">
        <ele>15</ele>
        <time>2012-02-15T13:34:47Z</time>
      </trkpt>
      <trkpt lat="46.45706" lon="-1.51884">
        <ele>15</ele>
        <time>2012-02-15T13:35:05Z</time>
      </trkpt>
      <trkpt lat="46.45705" lon="-1.51859">
        <ele>15</ele>
        <time>2012-02-15T13:35:28Z</time>
      </trkpt>
      <trkpt lat="46.45702" lon="-1.51838">
        <ele>15</ele>
        <time>2012-02-15T13:35:37Z</time>
      </trkpt>
      <trkpt lat="46.45695" lon="-1.51811">
        <ele>16</ele>
        <time>2012-02-15T13:35:48Z</time>
      </trkpt>
      <trkpt lat="46.45691" lon="-1.51786">
        <ele>16</ele>
        <time>2012-02-15T13:36:05Z</time>
      </trkpt>
      <trkpt lat="46.45687" lon="-1.51766">
        <ele>16</ele>
        <time>2012-02-15T13:36:22Z</time>
      </trkpt>
      <trkpt lat="46.45684" lon="-1.51746">
        <ele>17</ele>
        <time>2012-02-15T13:36:38Z</time>
      </trkpt>
      <trkpt lat="46.45682" lon="-1.51727">
        <ele>17</ele>
        <time>2012-02-15T13:36:49Z</time>
      </trkpt>
      <trkpt lat="46.45679" lon="-1.51707">
        <ele>17</ele>
        <time>2012-02-15T13:37:00Z</time>
      </trkpt>
      <trkpt lat="46.45678" lon="-1.51675">
        <ele>16</ele>
        <time>2012-02-15T13:37:10Z</time>
      </trkpt>
      <trkpt lat="46.45676" lon="-1.51654">
        <ele>16</ele>
        <time>2012-02-15T13:37:29Z</time>
      </trkpt>
      <trkpt lat="46.45675" lon="-1.51633">
        <ele>17</ele>
        <time>2012-02-15T13:37:49Z</time>
      </trkpt>
      <trkpt lat="46.45672" lon="-1.51614">
        <ele>17</ele>
        <time>2012-02-15T13:38:18Z</time>
      </trkpt>
      <trkpt lat="46.45671" lon="-1.51588">
        <ele>16</ele>
        <time>2012-02-15T13:38:37Z</time>
      </trkpt>
      <trkpt lat="46.45669" lon="-1.51562">
        <ele>16</ele>
        <time>2012-02-15T13:38:54Z</time>
      </trkpt>
      <trkpt lat="46.4567" lon="-1.51541">
        <ele>16</ele>
        <time>2012-02-15T13:39:13Z</time>
      </trkpt>
      <trkpt lat="46.4567" lon="-1.51519">
        <ele>16</ele>
        <time>2012-02-15T13:39:29Z</time>
      </trkpt>
      <trkpt lat="46.45666" lon="-1.51491">
        <ele>15</ele>
        <time>2012-02-15T13:39:43Z</time>
      </trkpt>
      <trkpt lat="46.45664" lon="-1.51471">
        <ele>15</ele>
        <time>2012-02-15T13:39:58Z</time>
      </trkpt>
      <trkpt lat="46.45663" lon="-1.51448">
        <ele>15</ele>
        <time>2012-02-15T13:40:11Z</time>
      </trkpt>
      <trkpt lat="46.45658" lon="-1.51423">
        <ele>15</ele>
        <time>2012-02-15T13:40:25Z</time>
      </trkpt>
      <trkpt lat="46.45653" lon="-1.51399">
        <ele>15</ele>
        <time>2012-02-15T13:40:44Z</time>
      </trkpt>
      <trkpt lat="46.45648" lon="-1.5138">
        <ele>15</ele>
        <time>2012-02-15T13:40:59Z</time>
      </trkpt>
      <trkpt lat="46.45642" lon="-1.51361">
        <ele>16</ele>
        <time>2012-02-15T13:41:11Z</time>
      </trkpt>
      <trkpt lat="46.45632" lon="-1.51338">
        <ele>16</ele>
        <time>2012-02-15T13:41:23Z</time>
      </trkpt>
      <trkpt lat="46.45626" lon="-1.5132">
        <ele>16</ele>
        <time>2012-02-15T13:41:36Z</time>
      </trkpt>
      <trkpt lat="46.4562" lon="-1.51302">
        <ele>16</ele>
        <time>2012-02-15T13:41:48Z</time>
      </trkpt>
      <trkpt lat="46.45613" lon="-1.51283">
        <ele>15</ele>
        <time>2012-02-15T13:41:58Z</time>
      </trkpt>
      <trkpt lat="46.45607" lon="-1.51262">
        <ele>15</ele>
        <time>2012-02-15T13:42:21Z</time>
      </trkpt>
      <trkpt lat="46.45598" lon="-1.51246">
        <ele>15</ele>
        <time>2012-02-15T13:42:39Z</time>
      </trkpt>
      <trkpt lat="46.45589" lon="-1.51228">
        <ele>15</ele>
        <time>2012-02-15T13:42:56Z</time>
      </trkpt>
      <trkpt lat="46.45582" lon="-1.5121">
        <ele>14</ele>
        <time>2012-02-15T13:43:07Z</time>
      </trkpt>
      <trkpt lat="46.45576" lon="-1.51191">
        <ele>14</ele>
        <time>2012-02-15T13:43:18Z</time>
      </trkpt>
      <trkpt lat="46.45569" lon="-1.51173">
        <ele>14</ele>
        <time>2012-02-15T13:43:28Z</time>
      </trkpt>
      <trkpt lat="46.45562" lon="-1.51154">
        <ele>13</ele>
        <time>2012-02-15T13:43:54Z</time>
      </trkpt>
      <trkpt lat="46.45559" lon="-1.51151">
        <ele>13</ele>
        <time>2012-02-15T13:44:31Z</time>
      </trkpt>
      <trkpt lat="46.45558" lon="-1.5116">
        <ele>13</ele>
        <time>2012-02-15T13:45:05Z</time>
      </trkpt>
      <trkpt lat="46.45552" lon="-1.51142">
        <ele>13</ele>
        <time>2012-02-15T13:46:04Z</time>
      </trkpt>
      <trkpt lat="46.45548" lon="-1.51121">
        <ele>13</ele>
        <time>2012-02-15T13:46:18Z</time>
      </trkpt>
      <trkpt lat="46.45545" lon="-1.51101">
        <ele>13</ele>
        <time>2012-02-15T13:46:30Z</time>
      </trkpt>
      <trkpt lat="46.45539" lon="-1.51081">
        <ele>12</ele>
        <time>2012-02-15T13:46:48Z</time>
      </trkpt>
      <trkpt lat="46.45533" lon="-1.51061">
        <ele>12</ele>
        <time>2012-02-15T13:47:00Z</time>
      </trkpt>
      <trkpt lat="46.45529" lon="-1.51035">
        <ele>12</ele>
        <time>2012-02-15T13:47:09Z</time>
      </trkpt>
      <trkpt lat="46.45524" lon="-1.51016">
        <ele>12</ele>
        <time>2012-02-15T13:47:26Z</time>
      </trkpt>
      <trkpt lat="46.45521" lon="-1.50993">
        <ele>12</ele>
        <time>2012-02-15T13:47:47Z</time>
      </trkpt>
      <trkpt lat="46.4552" lon="-1.50973">
        <ele>12</ele>
        <time>2012-02-15T13:48:01Z</time>
      </trkpt>
      <trkpt lat="46.45514" lon="-1.50959">
        <ele>12</ele>
        <time>2012-02-15T13:48:12Z</time>
      </trkpt>
      <trkpt lat="46.45499" lon="-1.50954">
        <ele>12</ele>
        <time>2012-02-15T13:48:24Z</time>
      </trkpt>
      <trkpt lat="46.45474" lon="-1.50974">
        <ele>12</ele>
        <time>2012-02-15T13:48:40Z</time>
      </trkpt>
      <trkpt lat="46.45461" lon="-1.50983">
        <ele>12</ele>
        <time>2012-02-15T13:49:01Z</time>
      </trkpt>
      <trkpt lat="46.45446" lon="-1.50994">
        <ele>12</ele>
        <time>2012-02-15T13:49:10Z</time>
      </trkpt>
      <trkpt lat="46.45434" lon="-1.51004">
        <ele>11</ele>
        <time>2012-02-15T13:49:22Z</time>
      </trkpt>
      <trkpt lat="46.4542" lon="-1.51013">
        <ele>11</ele>
        <time>2012-02-15T13:49:35Z</time>
      </trkpt>
      <trkpt lat="46.45407" lon="-1.51019">
        <ele>11</ele>
        <time>2012-02-15T13:49:47Z</time>
      </trkpt>
      <trkpt lat="46.45389" lon="-1.51027">
        <ele>11</ele>
        <time>2012-02-15T13:50:04Z</time>
      </trkpt>
      <trkpt lat="46.45375" lon="-1.51028">
        <ele>11</ele>
        <time>2012-02-15T13:50:21Z</time>
      </trkpt>
      <trkpt lat="46.45361" lon="-1.51032">
        <ele>11</ele>
        <time>2012-02-15T13:50:33Z</time>
      </trkpt>
      <trkpt lat="46.45345" lon="-1.51039">
        <ele>11</ele>
        <time>2012-02-15T13:50:47Z</time>
      </trkpt>
      <trkpt lat="46.4533" lon="-1.51046">
        <ele>13</ele>
        <time>2012-02-15T13:51:01Z</time>
      </trkpt>
      <trkpt lat="46.45313" lon="-1.51058">
        <ele>14</ele>
        <time>2012-02-15T13:51:19Z</time>
      </trkpt>
      <trkpt lat="46.45298" lon="-1.51068">
        <ele>14</ele>
        <time>2012-02-15T13:51:28Z</time>
      </trkpt>
      <trkpt lat="46.45281" lon="-1.51079">
        <ele>15</ele>
        <time>2012-02-15T13:51:42Z</time>
      </trkpt>
      <trkpt lat="46.45271" lon="-1.51095">
        <ele>15</ele>
        <time>2012-02-15T13:52:00Z</time>
      </trkpt>
      <trkpt lat="46.45262" lon="-1.51121">
        <ele>15</ele>
        <time>2012-02-15T13:52:14Z</time>
      </trkpt>
      <trkpt lat="46.45264" lon="-1.51141">
        <ele>15</ele>
        <time>2012-02-15T13:52:29Z</time>
      </trkpt>
      <trkpt lat="46.45264" lon="-1.51165">
        <ele>16</ele>
        <time>2012-02-15T13:52:41Z</time>
      </trkpt>
      <trkpt lat="46.45259" lon="-1.51183">
        <ele>15</ele>
        <time>2012-02-15T13:52:55Z</time>
      </trkpt>
      <trkpt lat="46.45253" lon="-1.51203">
        <ele>15</ele>
        <time>2012-02-15T13:53:07Z</time>
      </trkpt>
      <trkpt lat="46.45244" lon="-1.51219">
        <ele>18</ele>
        <time>2012-02-15T13:53:21Z</time>
      </trkpt>
      <trkpt lat="46.45236" lon="-1.51235">
        <ele>18</ele>
        <time>2012-02-15T13:53:32Z</time>
      </trkpt>
      <trkpt lat="46.45229" lon="-1.51258">
        <ele>17</ele>
        <time>2012-02-15T13:53:47Z</time>
      </trkpt>
      <trkpt lat="46.45225" lon="-1.51277">
        <ele>18</ele>
        <time>2012-02-15T13:54:03Z</time>
      </trkpt>
      <trkpt lat="46.45219" lon="-1.51295">
        <ele>18</ele>
        <time>2012-02-15T13:54:11Z</time>
      </trkpt>
      <trkpt lat="46.45212" lon="-1.51317">
        <ele>18</ele>
        <time>2012-02-15T13:54:20Z</time>
      </trkpt>
      <trkpt lat="46.45202" lon="-1.51345">
        <ele>18</ele>
        <time>2012-02-15T13:54:34Z</time>
      </trkpt>
      <trkpt lat="46.45197" lon="-1.51346">
        <ele>18</ele>
        <time>2012-02-15T13:55:24Z</time>
      </trkpt>
      <trkpt lat="46.45198" lon="-1.51324">
        <ele>19</ele>
        <time>2012-02-15T13:55:56Z</time>
      </trkpt>
      <trkpt lat="46.45195" lon="-1.51304">
        <ele>19</ele>
        <time>2012-02-15T13:56:14Z</time>
      </trkpt>
      <trkpt lat="46.45191" lon="-1.51282">
        <ele>19</ele>
        <time>2012-02-15T13:56:32Z</time>
      </trkpt>
      <trkpt lat="46.45187" lon="-1.51258">
        <ele>20</ele>
        <time>2012-02-15T13:56:46Z</time>
      </trkpt>
      <trkpt lat="46.45186" lon="-1.51228">
        <ele>21</ele>
        <time>2012-02-15T13:56:58Z</time>
      </trkpt>
      <trkpt lat="46.45184" lon="-1.51207">
        <ele>20</ele>
        <time>2012-02-15T13:57:17Z</time>
      </trkpt>
      <trkpt lat="46.45182" lon="-1.51183">
        <ele>21</ele>
        <time>2012-02-15T13:57:31Z</time>
      </trkpt>
      <trkpt lat="46.4518" lon="-1.51163">
        <ele>22</ele>
        <time>2012-02-15T13:57:46Z</time>
      </trkpt>
      <trkpt lat="46.45172" lon="-1.51136">
        <ele>21</ele>
        <time>2012-02-15T13:57:59Z</time>
      </trkpt>
      <trkpt lat="46.45163" lon="-1.51116">
        <ele>22</ele>
        <time>2012-02-15T13:58:21Z</time>
      </trkpt>
      <trkpt lat="46.45156" lon="-1.51099">
        <ele>22</ele>
        <time>2012-02-15T13:58:34Z</time>
      </trkpt>
      <trkpt lat="46.45144" lon="-1.51082">
        <ele>22</ele>
        <time>2012-02-15T13:58:50Z</time>
      </trkpt>
      <trkpt lat="46.45135" lon="-1.51067">
        <ele>21</ele>
        <time>2012-02-15T13:59:04Z</time>
      </trkpt>
      <trkpt lat="46.45124" lon="-1.51048">
        <ele>21</ele>
        <time>2012-02-15T13:59:16Z</time>
      </trkpt>
      <trkpt lat="46.45115" lon="-1.51033">
        <ele>21</ele>
        <time>2012-02-15T13:59:26Z</time>
      </trkpt>
      <trkpt lat="46.45108" lon="-1.51014">
        <ele>21</ele>
        <time>2012-02-15T13:59:44Z</time>
      </trkpt>
      <trkpt lat="46.45101" lon="-1.50997">
        <ele>20</ele>
        <time>2012-02-15T13:59:58Z</time>
      </trkpt>
      <trkpt lat="46.45093" lon="-1.5098">
        <ele>20</ele>
        <time>2012-02-15T14:00:15Z</time>
      </trkpt>
      <trkpt lat="46.45086" lon="-1.50962">
        <ele>20</ele>
        <time>2012-02-15T14:00:29Z</time>
      </trkpt>
      <trkpt lat="46.45085" lon="-1.50939">
        <ele>19</ele>
        <time>2012-02-15T14:00:44Z</time>
      </trkpt>
      <trkpt lat="46.45089" lon="-1.50917">
        <ele>19</ele>
        <time>2012-02-15T14:01:03Z</time>
      </trkpt>
      <trkpt lat="46.45089" lon="-1.50894">
        <ele>18</ele>
        <time>2012-02-15T14:01:25Z</time>
      </trkpt>
      <trkpt lat="46.45087" lon="-1.5087">
        <ele>18</ele>
        <time>2012-02-15T14:01:44Z</time>
      </trkpt>
      <trkpt lat="46.45087" lon="-1.50849">
        <ele>17</ele>
        <time>2012-02-15T14:02:01Z</time>
      </trkpt>
      <trkpt lat="46.45089" lon="-1.50828">
        <ele>16</ele>
        <time>2012-02-15T14:02:16Z</time>
      </trkpt>
      <trkpt lat="46.45092" lon="-1.50808">
        <ele>15</ele>
        <time>2012-02-15T14:02:29Z</time>
      </trkpt>
      <trkpt lat="46.45096" lon="-1.50788">
        <ele>15</ele>
        <time>2012-02-15T14:02:40Z</time>
      </trkpt>
      <trkpt lat="46.45102" lon="-1.50767">
        <ele>15</ele>
        <time>2012-02-15T14:02:53Z</time>
      </trkpt>
      <trkpt lat="46.45106" lon="-1.50745">
        <ele>14</ele>
        <time>2012-02-15T14:03:06Z</time>
      </trkpt>
      <trkpt lat="46.45108" lon="-1.50726">
        <ele>14</ele>
        <time>2012-02-15T14:03:24Z</time>
      </trkpt>
      <trkpt lat="46.45107" lon="-1.50696">
        <ele>13</ele>
        <time>2012-02-15T14:03:39Z</time>
      </trkpt>
      <trkpt lat="46.45105" lon="-1.50676">
        <ele>13</ele>
        <time>2012-02-15T14:03:57Z</time>
      </trkpt>
      <trkpt lat="46.45102" lon="-1.50656">
        <ele>13</ele>
        <time>2012-02-15T14:04:10Z</time>
      </trkpt>
      <trkpt lat="46.45101" lon="-1.50636">
        <ele>13</ele>
        <time>2012-02-15T14:04:30Z</time>
      </trkpt>
      <trkpt lat="46.45101" lon="-1.50615">
        <ele>13</ele>
        <time>2012-02-15T14:04:47Z</time>
      </trkpt>
      <trkpt lat="46.451" lon="-1.50596">
        <ele>13</ele>
        <time>2012-02-15T14:04:59Z</time>
      </trkpt>
      <trkpt lat="46.45098" lon="-1.50573">
        <ele>13</ele>
        <time>2012-02-15T14:05:18Z</time>
      </trkpt>
      <trkpt lat="46.45095" lon="-1.5055">
        <ele>13</ele>
        <time>2012-02-15T14:05:34Z</time>
      </trkpt>
      <trkpt lat="46.4509" lon="-1.50528">
        <ele>13</ele>
        <time>2012-02-15T14:05:59Z</time>
      </trkpt>
      <trkpt lat="46.4508" lon="-1.50522">
        <ele>14</ele>
        <time>2012-02-15T14:06:36Z</time>
      </trkpt>
      <trkpt lat="46.45065" lon="-1.50522">
        <ele>14</ele>
        <time>2012-02-15T14:07:01Z</time>
      </trkpt>
      <trkpt lat="46.45057" lon="-1.50522">
        <ele>14</ele>
        <time>2012-02-15T14:07:14Z</time>
      </trkpt>
      <trkpt lat="46.45044" lon="-1.50517">
        <ele>14</ele>
        <time>2012-02-15T14:07:52Z</time>
      </trkpt>
      <trkpt lat="46.4503" lon="-1.50522">
        <ele>15</ele>
        <time>2012-02-15T14:08:07Z</time>
      </trkpt>
      <trkpt lat="46.4501" lon="-1.50528">
        <ele>15</ele>
        <time>2012-02-15T14:08:27Z</time>
      </trkpt>
      <trkpt lat="46.44995" lon="-1.5053">
        <ele>15</ele>
        <time>2012-02-15T14:08:44Z</time>
      </trkpt>
      <trkpt lat="46.4498" lon="-1.50529">
        <ele>15</ele>
        <time>2012-02-15T14:09:01Z</time>
      </trkpt>
      <trkpt lat="46.44961" lon="-1.50529">
        <ele>15</ele>
        <time>2012-02-15T14:09:13Z</time>
      </trkpt>
      <trkpt lat="46.44945" lon="-1.50534">
        <ele>15</ele>
        <time>2012-02-15T14:09:33Z</time>
      </trkpt>
      <trkpt lat="46.44919" lon="-1.5054">
        <ele>15</ele>
        <time>2012-02-15T14:09:54Z</time>
      </trkpt>
      <trkpt lat="46.449" lon="-1.50543">
        <ele>14</ele>
        <time>2012-02-15T14:10:16Z</time>
      </trkpt>
      <trkpt lat="46.44887" lon="-1.50545">
        <ele>14</ele>
        <time>2012-02-15T14:10:27Z</time>
      </trkpt>
      <trkpt lat="46.44872" lon="-1.50547">
        <ele>14</ele>
        <time>2012-02-15T14:10:40Z</time>
      </trkpt>
      <trkpt lat="46.44855" lon="-1.50547">
        <ele>14</ele>
        <time>2012-02-15T14:10:59Z</time>
      </trkpt>
      <trkpt lat="46.44841" lon="-1.50548">
        <ele>14</ele>
        <time>2012-02-15T14:11:07Z</time>
      </trkpt>
      <trkpt lat="46.44827" lon="-1.5055">
        <ele>14</ele>
        <time>2012-02-15T14:11:16Z</time>
      </trkpt>
      <trkpt lat="46.44814" lon="-1.50552">
        <ele>14</ele>
        <time>2012-02-15T14:11:27Z</time>
      </trkpt>
      <trkpt lat="46.448" lon="-1.50554">
        <ele>14</ele>
        <time>2012-02-15T14:11:38Z</time>
      </trkpt>
      <trkpt lat="46.4478" lon="-1.50559">
        <ele>14</ele>
        <time>2012-02-15T14:11:57Z</time>
      </trkpt>
      <trkpt lat="46.44766" lon="-1.50566">
        <ele>14</ele>
        <time>2012-02-15T14:12:07Z</time>
      </trkpt>
      <trkpt lat="46.44754" lon="-1.50576">
        <ele>13</ele>
        <time>2012-02-15T14:12:18Z</time>
      </trkpt>
      <trkpt lat="46.44741" lon="-1.50587">
        <ele>13</ele>
        <time>2012-02-15T14:12:30Z</time>
      </trkpt>
      <trkpt lat="46.44727" lon="-1.50604">
        <ele>13</ele>
        <time>2012-02-15T14:12:42Z</time>
      </trkpt>
      <trkpt lat="46.44712" lon="-1.50622">
        <ele>13</ele>
        <time>2012-02-15T14:12:59Z</time>
      </trkpt>
      <trkpt lat="46.44699" lon="-1.5063">
        <ele>12</ele>
        <time>2012-02-15T14:13:17Z</time>
      </trkpt>
      <trkpt lat="46.44682" lon="-1.50639">
        <ele>12</ele>
        <time>2012-02-15T14:13:29Z</time>
      </trkpt>
      <trkpt lat="46.44668" lon="-1.50646">
        <ele>12</ele>
        <time>2012-02-15T14:13:44Z</time>
      </trkpt>
      <trkpt lat="46.44654" lon="-1.50654">
        <ele>12</ele>
        <time>2012-02-15T14:14:00Z</time>
      </trkpt>
      <trkpt lat="46.44639" lon="-1.50659">
        <ele>12</ele>
        <time>2012-02-15T14:14:13Z</time>
      </trkpt>
      <trkpt lat="46.44622" lon="-1.50662">
        <ele>12</ele>
        <time>2012-02-15T14:14:27Z</time>
      </trkpt>
      <trkpt lat="46.44605" lon="-1.50666">
        <ele>11</ele>
        <time>2012-02-15T14:14:39Z</time>
      </trkpt>
      <trkpt lat="46.44591" lon="-1.50668">
        <ele>11</ele>
        <time>2012-02-15T14:14:54Z</time>
      </trkpt>
      <trkpt lat="46.44574" lon="-1.50673">
        <ele>11</ele>
        <time>2012-02-15T14:15:08Z</time>
      </trkpt>
      <trkpt lat="46.44556" lon="-1.50679">
        <ele>11</ele>
        <time>2012-02-15T14:15:25Z</time>
      </trkpt>
      <trkpt lat="46.44542" lon="-1.50682">
        <ele>11</ele>
        <time>2012-02-15T14:15:39Z</time>
      </trkpt>
      <trkpt lat="46.44528" lon="-1.50687">
        <ele>11</ele>
        <time>2012-02-15T14:15:50Z</time>
      </trkpt>
      <trkpt lat="46.44515" lon="-1.50693">
        <ele>11</ele>
        <time>2012-02-15T14:16:01Z</time>
      </trkpt>
      <trkpt lat="46.44496" lon="-1.50701">
        <ele>11</ele>
        <time>2012-02-15T14:16:16Z</time>
      </trkpt>
      <trkpt lat="46.44474" lon="-1.50711">
        <ele>11</ele>
        <time>2012-02-15T14:16:35Z</time>
      </trkpt>
      <trkpt lat="46.4446" lon="-1.50719">
        <ele>11</ele>
        <time>2012-02-15T14:16:47Z</time>
      </trkpt>
      <trkpt lat="46.44447" lon="-1.50726">
        <ele>11</ele>
        <time>2012-02-15T14:16:59Z</time>
      </trkpt>
      <trkpt lat="46.44425" lon="-1.50737">
        <ele>12</ele>
        <time>2012-02-15T14:17:13Z</time>
      </trkpt>
      <trkpt lat="46.4441" lon="-1.50748">
        <ele>12</ele>
        <time>2012-02-15T14:17:34Z</time>
      </trkpt>
      <trkpt lat="46.44391" lon="-1.50757">
        <ele>13</ele>
        <time>2012-02-15T14:17:46Z</time>
      </trkpt>
      <trkpt lat="46.44378" lon="-1.50764">
        <ele>13</ele>
        <time>2012-02-15T14:19:32Z</time>
      </trkpt>
      <trkpt lat="46.44364" lon="-1.50771">
        <ele>13</ele>
        <time>2012-02-15T14:19:53Z</time>
      </trkpt>
      <trkpt lat="46.44347" lon="-1.50774">
        <ele>13</ele>
        <time>2012-02-15T14:20:19Z</time>
      </trkpt>
      <trkpt lat="46.44335" lon="-1.50786">
        <ele>13</ele>
        <time>2012-02-15T14:21:25Z</time>
      </trkpt>
      <trkpt lat="46.4432" lon="-1.50798">
        <ele>13</ele>
        <time>2012-02-15T14:21:38Z</time>
      </trkpt>
      <trkpt lat="46.44309" lon="-1.5081">
        <ele>13</ele>
        <time>2012-02-15T14:21:54Z</time>
      </trkpt>
      <trkpt lat="46.44298" lon="-1.50824">
        <ele>13</ele>
        <time>2012-02-15T14:22:10Z</time>
      </trkpt>
      <trkpt lat="46.44288" lon="-1.5084">
        <ele>14</ele>
        <time>2012-02-15T14:22:23Z</time>
      </trkpt>
      <trkpt lat="46.44276" lon="-1.5086">
        <ele>14</ele>
        <time>2012-02-15T14:22:37Z</time>
      </trkpt>
      <trkpt lat="46.44264" lon="-1.5088">
        <ele>14</ele>
        <time>2012-02-15T14:22:56Z</time>
      </trkpt>
      <trkpt lat="46.44255" lon="-1.50896">
        <ele>14</ele>
        <time>2012-02-15T14:23:12Z</time>
      </trkpt>
      <trkpt lat="46.44243" lon="-1.50911">
        <ele>13</ele>
        <time>2012-02-15T14:23:26Z</time>
      </trkpt>
      <trkpt lat="46.44231" lon="-1.50924">
        <ele>13</ele>
        <time>2012-02-15T14:23:42Z</time>
      </trkpt>
      <trkpt lat="46.44219" lon="-1.50935">
        <ele>13</ele>
        <time>2012-02-15T14:23:56Z</time>
      </trkpt>
      <trkpt lat="46.44208" lon="-1.50946">
        <ele>13</ele>
        <time>2012-02-15T14:24:09Z</time>
      </trkpt>
      <trkpt lat="46.44194" lon="-1.50959">
        <ele>13</ele>
        <time>2012-02-15T14:24:22Z</time>
      </trkpt>
      <trkpt lat="46.44182" lon="-1.50971">
        <ele>13</ele>
        <time>2012-02-15T14:24:38Z</time>
      </trkpt>
      <trkpt lat="46.4417" lon="-1.50982">
        <ele>13</ele>
        <time>2012-02-15T14:24:51Z</time>
      </trkpt>
      <trkpt lat="46.44158" lon="-1.50992">
        <ele>12</ele>
        <time>2012-02-15T14:25:04Z</time>
      </trkpt>
      <trkpt lat="46.44146" lon="-1.51003">
        <ele>12</ele>
        <time>2012-02-15T14:25:17Z</time>
      </trkpt>
      <trkpt lat="46.44135" lon="-1.51016">
        <ele>11</ele>
        <time>2012-02-15T14:25:29Z</time>
      </trkpt>
      <trkpt lat="46.44124" lon="-1.5103">
        <ele>11</ele>
        <time>2012-02-15T14:25:41Z</time>
      </trkpt>
      <trkpt lat="46.44113" lon="-1.51042">
        <ele>11</ele>
        <time>2012-02-15T14:25:53Z</time>
      </trkpt>
      <trkpt lat="46.44103" lon="-1.51057">
        <ele>10</ele>
        <time>2012-02-15T14:26:05Z</time>
      </trkpt>
      <trkpt lat="46.44094" lon="-1.51072">
        <ele>10</ele>
        <time>2012-02-15T14:26:17Z</time>
      </trkpt>
      <trkpt lat="46.44085" lon="-1.51087">
        <ele>9</ele>
        <time>2012-02-15T14:26:30Z</time>
      </trkpt>
      <trkpt lat="46.44071" lon="-1.51109">
        <ele>8</ele>
        <time>2012-02-15T14:26:41Z</time>
      </trkpt>
      <trkpt lat="46.44062" lon="-1.51124">
        <ele>8</ele>
        <time>2012-02-15T14:26:58Z</time>
      </trkpt>
      <trkpt lat="46.4405" lon="-1.51145">
        <ele>7</ele>
        <time>2012-02-15T14:27:10Z</time>
      </trkpt>
      <trkpt lat="46.44039" lon="-1.51163">
        <ele>7</ele>
        <time>2012-02-15T14:27:24Z</time>
      </trkpt>
      <trkpt lat="46.44029" lon="-1.51179">
        <ele>7</ele>
        <time>2012-02-15T14:27:37Z</time>
      </trkpt>
      <trkpt lat="46.44017" lon="-1.51196">
        <ele>7</ele>
        <time>2012-02-15T14:27:48Z</time>
      </trkpt>
      <trkpt lat="46.44007" lon="-1.51211">
        <ele>8</ele>
        <time>2012-02-15T14:28:02Z</time>
      </trkpt>
      <trkpt lat="46.43999" lon="-1.51227">
        <ele>6</ele>
        <time>2012-02-15T14:28:13Z</time>
      </trkpt>
      <trkpt lat="46.43989" lon="-1.51245">
        <ele>6</ele>
        <time>2012-02-15T14:28:29Z</time>
      </trkpt>
      <trkpt lat="46.43981" lon="-1.51262">
        <ele>7</ele>
        <time>2012-02-15T14:28:40Z</time>
      </trkpt>
      <trkpt lat="46.43976" lon="-1.5128">
        <ele>7</ele>
        <time>2012-02-15T14:28:55Z</time>
      </trkpt>
      <trkpt lat="46.4397" lon="-1.51307">
        <ele>7</ele>
        <time>2012-02-15T14:29:09Z</time>
      </trkpt>
      <trkpt lat="46.43965" lon="-1.51326">
        <ele>7</ele>
        <time>2012-02-15T14:29:33Z</time>
      </trkpt>
      <trkpt lat="46.43969" lon="-1.51345">
        <ele>8</ele>
        <time>2012-02-15T14:29:54Z</time>
      </trkpt>
      <trkpt lat="46.43982" lon="-1.51356">
        <ele>8</ele>
        <time>2012-02-15T14:30:07Z</time>
      </trkpt>
      <trkpt lat="46.43995" lon="-1.51372">
        <ele>8</ele>
        <time>2012-02-15T14:30:18Z</time>
      </trkpt>
      <trkpt lat="46.44005" lon="-1.51384">
        <ele>10</ele>
        <time>2012-02-15T14:30:30Z</time>
      </trkpt>
      <trkpt lat="46.44018" lon="-1.51398">
        <ele>10</ele>
        <time>2012-02-15T14:30:41Z</time>
      </trkpt>
      <trkpt lat="46.44033" lon="-1.51416">
        <ele>11</ele>
        <time>2012-02-15T14:30:53Z</time>
      </trkpt>
      <trkpt lat="46.44043" lon="-1.51429">
        <ele>11</ele>
        <time>2012-02-15T14:31:08Z</time>
      </trkpt>
      <trkpt lat="46.44055" lon="-1.51439">
        <ele>11</ele>
        <time>2012-02-15T14:31:20Z</time>
      </trkpt>
      <trkpt lat="46.44068" lon="-1.51453">
        <ele>11</ele>
        <time>2012-02-15T14:31:33Z</time>
      </trkpt>
      <trkpt lat="46.44078" lon="-1.51468">
        <ele>11</ele>
        <time>2012-02-15T14:31:46Z</time>
      </trkpt>
      <trkpt lat="46.44087" lon="-1.51491">
        <ele>12</ele>
        <time>2012-02-15T14:31:59Z</time>
      </trkpt>
      <trkpt lat="46.44088" lon="-1.51511">
        <ele>12</ele>
        <time>2012-02-15T14:32:16Z</time>
      </trkpt>
      <trkpt lat="46.4409" lon="-1.5153">
        <ele>12</ele>
        <time>2012-02-15T14:32:28Z</time>
      </trkpt>
      <trkpt lat="46.44091" lon="-1.51552">
        <ele>12</ele>
        <time>2012-02-15T14:32:43Z</time>
      </trkpt>
      <trkpt lat="46.44092" lon="-1.51581">
        <ele>12</ele>
        <time>2012-02-15T14:32:59Z</time>
      </trkpt>
      <trkpt lat="46.4409" lon="-1.51606">
        <ele>11</ele>
        <time>2012-02-15T14:33:15Z</time>
      </trkpt>
      <trkpt lat="46.44085" lon="-1.51633">
        <ele>11</ele>
        <time>2012-02-15T14:33:35Z</time>
      </trkpt>
      <trkpt lat="46.44082" lon="-1.51655">
        <ele>10</ele>
        <time>2012-02-15T14:33:50Z</time>
      </trkpt>
      <trkpt lat="46.44076" lon="-1.51674">
        <ele>9</ele>
        <time>2012-02-15T14:34:02Z</time>
      </trkpt>
      <trkpt lat="46.44068" lon="-1.51693">
        <ele>8</ele>
        <time>2012-02-15T14:34:13Z</time>
      </trkpt>
      <trkpt lat="46.44057" lon="-1.51705">
        <ele>8</ele>
        <time>2012-02-15T14:34:22Z</time>
      </trkpt>
      <trkpt lat="46.44043" lon="-1.51726">
        <ele>7</ele>
        <time>2012-02-15T14:34:35Z</time>
      </trkpt>
      <trkpt lat="46.44036" lon="-1.5175">
        <ele>7</ele>
        <time>2012-02-15T14:34:51Z</time>
      </trkpt>
      <trkpt lat="46.44033" lon="-1.5177">
        <ele>5</ele>
        <time>2012-02-15T14:35:03Z</time>
      </trkpt>
      <trkpt lat="46.44031" lon="-1.51791">
        <ele>5</ele>
        <time>2012-02-15T14:35:14Z</time>
      </trkpt>
      <trkpt lat="46.44028" lon="-1.51811">
        <ele>5</ele>
        <time>2012-02-15T14:35:29Z</time>
      </trkpt>
      <trkpt lat="46.44026" lon="-1.51831">
        <ele>5</ele>
        <time>2012-02-15T14:35:40Z</time>
      </trkpt>
      <trkpt lat="46.44026" lon="-1.51852">
        <ele>4</ele>
        <time>2012-02-15T14:35:52Z</time>
      </trkpt>
      <trkpt lat="46.44029" lon="-1.5188">
        <ele>5</ele>
        <time>2012-02-15T14:36:04Z</time>
      </trkpt>
      <trkpt lat="46.44037" lon="-1.51914">
        <ele>5</ele>
        <time>2012-02-15T14:36:27Z</time>
      </trkpt>
      <trkpt lat="46.44042" lon="-1.51944">
        <ele>7</ele>
        <time>2012-02-15T14:36:52Z</time>
      </trkpt>
      <trkpt lat="46.44043" lon="-1.51973">
        <ele>8</ele>
        <time>2012-02-15T14:37:05Z</time>
      </trkpt>
      <trkpt lat="46.44045" lon="-1.51994">
        <ele>8</ele>
        <time>2012-02-15T14:37:24Z</time>
      </trkpt>
      <trkpt lat="46.44047" lon="-1.52022">
        <ele>9</ele>
        <time>2012-02-15T14:37:36Z</time>
      </trkpt>
      <trkpt lat="46.44048" lon="-1.52042">
        <ele>9</ele>
        <time>2012-02-15T14:37:54Z</time>
      </trkpt>
      <trkpt lat="46.44048" lon="-1.52065">
        <ele>9</ele>
        <time>2012-02-15T14:38:08Z</time>
      </trkpt>
      <trkpt lat="46.44052" lon="-1.52094">
        <ele>10</ele>
        <time>2012-02-15T14:38:22Z</time>
      </trkpt>
      <trkpt lat="46.44052" lon="-1.52116">
        <ele>9</ele>
        <time>2012-02-15T14:39:03Z</time>
      </trkpt>
      <trkpt lat="46.44057" lon="-1.52116">
        <ele>10</ele>
        <time>2012-02-15T14:40:12Z</time>
      </trkpt>
      <trkpt lat="46.44062" lon="-1.5214">
        <ele>9</ele>
        <time>2012-02-15T14:41:48Z</time>
      </trkpt>
      <trkpt lat="46.44064" lon="-1.52161">
        <ele>10</ele>
        <time>2012-02-15T14:42:01Z</time>
      </trkpt>
      <trkpt lat="46.44066" lon="-1.52181">
        <ele>10</ele>
        <time>2012-02-15T14:42:12Z</time>
      </trkpt>
      <trkpt lat="46.44066" lon="-1.52201">
        <ele>10</ele>
        <time>2012-02-15T14:42:24Z</time>
      </trkpt>
      <trkpt lat="46.44049" lon="-1.52206">
        <ele>10</ele>
        <time>2012-02-15T14:42:46Z</time>
      </trkpt>
      <trkpt lat="46.44033" lon="-1.52199">
        <ele>9</ele>
        <time>2012-02-15T14:43:04Z</time>
      </trkpt>
      <trkpt lat="46.4402" lon="-1.52191">
        <ele>9</ele>
        <time>2012-02-15T14:43:22Z</time>
      </trkpt>
      <trkpt lat="46.44005" lon="-1.52184">
        <ele>9</ele>
        <time>2012-02-15T14:43:32Z</time>
      </trkpt>
      <trkpt lat="46.43985" lon="-1.5218">
        <ele>8</ele>
        <time>2012-02-15T14:43:48Z</time>
      </trkpt>
      <trkpt lat="46.43971" lon="-1.52184">
        <ele>8</ele>
        <time>2012-02-15T14:44:09Z</time>
      </trkpt>
      <trkpt lat="46.43964" lon="-1.52204">
        <ele>8</ele>
        <time>2012-02-15T14:44:25Z</time>
      </trkpt>
      <trkpt lat="46.43974" lon="-1.52224">
        <ele>9</ele>
        <time>2012-02-15T14:44:38Z</time>
      </trkpt>
      <trkpt lat="46.43993" lon="-1.52233">
        <ele>9</ele>
        <time>2012-02-15T14:44:53Z</time>
      </trkpt>
      <trkpt lat="46.44011" lon="-1.52241">
        <ele>10</ele>
        <time>2012-02-15T14:45:15Z</time>
      </trkpt>
      <trkpt lat="46.44014" lon="-1.52241">
        <ele>10</ele>
        <time>2012-02-15T14:45:39Z</time>
      </trkpt>
      <trkpt lat="46.44015" lon="-1.52243">
        <ele>10</ele>
        <time>2012-02-15T14:46:00Z</time>
      </trkpt>
      <trkpt lat="46.44015" lon="-1.52249">
        <ele>10</ele>
        <time>2012-02-15T14:47:06Z</time>
      </trkpt>
      <trkpt lat="46.44007" lon="-1.52248">
        <ele>10</ele>
        <time>2012-02-15T14:47:46Z</time>
      </trkpt>
      <trkpt lat="46.44008" lon="-1.52246">
        <ele>10</ele>
        <time>2012-02-15T14:48:10Z</time>
      </trkpt>
      <trkpt lat="46.44012" lon="-1.52271">
        <ele>10</ele>
        <time>2012-02-15T14:48:27Z</time>
      </trkpt>
      <trkpt lat="46.44024" lon="-1.52281">
        <ele>11</ele>
        <time>2012-02-15T14:48:43Z</time>
      </trkpt>
      <trkpt lat="46.44036" lon="-1.52271">
        <ele>11</ele>
        <time>2012-02-15T14:48:54Z</time>
      </trkpt>
      <trkpt lat="46.44046" lon="-1.52267">
        <ele>11</ele>
        <time>2012-02-15T14:49:05Z</time>
      </trkpt>
      <trkpt lat="46.44044" lon="-1.52286">
        <ele>11</ele>
        <time>2012-02-15T14:49:19Z</time>
      </trkpt>
      <trkpt lat="46.44038" lon="-1.52305">
        <ele>11</ele>
        <time>2012-02-15T14:49:29Z</time>
      </trkpt>
      <trkpt lat="46.44031" lon="-1.52322">
        <ele>11</ele>
        <time>2012-02-15T14:49:43Z</time>
      </trkpt>
      <trkpt lat="46.44024" lon="-1.52345">
        <ele>12</ele>
        <time>2012-02-15T14:49:58Z</time>
      </trkpt>
      <trkpt lat="46.4402" lon="-1.52364">
        <ele>12</ele>
        <time>2012-02-15T14:50:14Z</time>
      </trkpt>
      <trkpt lat="46.44018" lon="-1.52385">
        <ele>13</ele>
        <time>2012-02-15T14:50:28Z</time>
      </trkpt>
      <trkpt lat="46.44009" lon="-1.52402">
        <ele>13</ele>
        <time>2012-02-15T14:50:54Z</time>
      </trkpt>
      <trkpt lat="46.44021" lon="-1.52407">
        <ele>13</ele>
        <time>2012-02-15T14:51:26Z</time>
      </trkpt>
      <trkpt lat="46.44028" lon="-1.52428">
        <ele>14</ele>
        <time>2012-02-15T14:51:41Z</time>
      </trkpt>
      <trkpt lat="46.44032" lon="-1.5245">
        <ele>14</ele>
        <time>2012-02-15T14:51:56Z</time>
      </trkpt>
      <trkpt lat="46.44034" lon="-1.5247">
        <ele>14</ele>
        <time>2012-02-15T14:52:11Z</time>
      </trkpt>
      <trkpt lat="46.44038" lon="-1.52496">
        <ele>14</ele>
        <time>2012-02-15T14:52:25Z</time>
      </trkpt>
      <trkpt lat="46.44043" lon="-1.52514">
        <ele>14</ele>
        <time>2012-02-15T14:52:44Z</time>
      </trkpt>
      <trkpt lat="46.44046" lon="-1.52534">
        <ele>14</ele>
        <time>2012-02-15T14:52:57Z</time>
      </trkpt>
      <trkpt lat="46.4405" lon="-1.52556">
        <ele>14</ele>
        <time>2012-02-15T14:53:09Z</time>
      </trkpt>
      <trkpt lat="46.44054" lon="-1.52568">
        <ele>14</ele>
        <time>2012-02-15T14:53:20Z</time>
      </trkpt>
      <trkpt lat="46.44068" lon="-1.52573">
        <ele>14</ele>
        <time>2012-02-15T14:53:38Z</time>
      </trkpt>
      <trkpt lat="46.44081" lon="-1.52581">
        <ele>14</ele>
        <time>2012-02-15T14:53:59Z</time>
      </trkpt>
      <trkpt lat="46.44093" lon="-1.5259">
        <ele>14</ele>
        <time>2012-02-15T14:54:12Z</time>
      </trkpt>
      <trkpt lat="46.44106" lon="-1.52597">
        <ele>14</ele>
        <time>2012-02-15T14:54:22Z</time>
      </trkpt>
      <trkpt lat="46.4412" lon="-1.52606">
        <ele>14</ele>
        <time>2012-02-15T14:54:31Z</time>
      </trkpt>
      <trkpt lat="46.44133" lon="-1.52614">
        <ele>15</ele>
        <time>2012-02-15T14:54:43Z</time>
      </trkpt>
      <trkpt lat="46.44154" lon="-1.5263">
        <ele>14</ele>
        <time>2012-02-15T14:55:04Z</time>
      </trkpt>
      <trkpt lat="46.44172" lon="-1.52643">
        <ele>15</ele>
        <time>2012-02-15T14:55:24Z</time>
      </trkpt>
      <trkpt lat="46.44193" lon="-1.5265">
        <ele>15</ele>
        <time>2012-02-15T14:55:42Z</time>
      </trkpt>
      <trkpt lat="46.4421" lon="-1.52656">
        <ele>15</ele>
        <time>2012-02-15T14:56:03Z</time>
      </trkpt>
      <trkpt lat="46.44225" lon="-1.5266">
        <ele>15</ele>
        <time>2012-02-15T14:56:19Z</time>
      </trkpt>
      <trkpt lat="46.44239" lon="-1.52666">
        <ele>16</ele>
        <time>2012-02-15T14:56:30Z</time>
      </trkpt>
      <trkpt lat="46.44268" lon="-1.52673">
        <ele>16</ele>
        <time>2012-02-15T14:56:43Z</time>
      </trkpt>
      <trkpt lat="46.44282" lon="-1.52669">
        <ele>16</ele>
        <time>2012-02-15T14:57:01Z</time>
      </trkpt>
      <trkpt lat="46.44295" lon="-1.52659">
        <ele>16</ele>
        <time>2012-02-15T14:57:12Z</time>
      </trkpt>
      <trkpt lat="46.44313" lon="-1.52647">
        <ele>17</ele>
        <time>2012-02-15T14:57:37Z</time>
      </trkpt>
      <trkpt lat="46.44327" lon="-1.52641">
        <ele>17</ele>
        <time>2012-02-15T14:57:49Z</time>
      </trkpt>
      <trkpt lat="46.44343" lon="-1.52636">
        <ele>17</ele>
        <time>2012-02-15T14:58:03Z</time>
      </trkpt>
      <trkpt lat="46.44358" lon="-1.52634">
        <ele>17</ele>
        <time>2012-02-15T14:58:18Z</time>
      </trkpt>
      <trkpt lat="46.44371" lon="-1.52628">
        <ele>17</ele>
        <time>2012-02-15T14:58:29Z</time>
      </trkpt>
      <trkpt lat="46.44388" lon="-1.52623">
        <ele>17</ele>
        <time>2012-02-15T14:58:42Z</time>
      </trkpt>
      <trkpt lat="46.44402" lon="-1.52618">
        <ele>17</ele>
        <time>2012-02-15T14:58:57Z</time>
      </trkpt>
      <trkpt lat="46.44419" lon="-1.52613">
        <ele>17</ele>
        <time>2012-02-15T14:59:12Z</time>
      </trkpt>
      <trkpt lat="46.44435" lon="-1.52609">
        <ele>17</ele>
        <time>2012-02-15T14:59:30Z</time>
      </trkpt>
      <trkpt lat="46.44451" lon="-1.52607">
        <ele>17</ele>
        <time>2012-02-15T14:59:43Z</time>
      </trkpt>
      <trkpt lat="46.44465" lon="-1.52605">
        <ele>17</ele>
        <time>2012-02-15T14:59:55Z</time>
      </trkpt>
      <trkpt lat="46.44483" lon="-1.52598">
        <ele>17</ele>
        <time>2012-02-15T15:00:11Z</time>
      </trkpt>
      <trkpt lat="46.44498" lon="-1.52596">
        <ele>17</ele>
        <time>2012-02-15T15:00:27Z</time>
      </trkpt>
      <trkpt lat="46.44513" lon="-1.52594">
        <ele>17</ele>
        <time>2012-02-15T15:00:40Z</time>
      </trkpt>
      <trkpt lat="46.44527" lon="-1.52594">
        <ele>17</ele>
        <time>2012-02-15T15:00:57Z</time>
      </trkpt>
      <trkpt lat="46.44541" lon="-1.52592">
        <ele>17</ele>
        <time>2012-02-15T15:01:11Z</time>
      </trkpt>
      <trkpt lat="46.44557" lon="-1.5259">
        <ele>17</ele>
        <time>2012-02-15T15:01:23Z</time>
      </trkpt>
      <trkpt lat="46.44571" lon="-1.52588">
        <ele>17</ele>
        <time>2012-02-15T15:01:37Z</time>
      </trkpt>
      <trkpt lat="46.44586" lon="-1.52583">
        <ele>16</ele>
        <time>2012-02-15T15:01:53Z</time>
      </trkpt>
      <trkpt lat="46.44605" lon="-1.5258">
        <ele>15</ele>
        <time>2012-02-15T15:02:08Z</time>
      </trkpt>
      <trkpt lat="46.44619" lon="-1.52576">
        <ele>15</ele>
        <time>2012-02-15T15:02:23Z</time>
      </trkpt>
      <trkpt lat="46.44634" lon="-1.52571">
        <ele>15</ele>
        <time>2012-02-15T15:02:33Z</time>
      </trkpt>
      <trkpt lat="46.44649" lon="-1.52569">
        <ele>15</ele>
        <time>2012-02-15T15:02:44Z</time>
      </trkpt>
      <trkpt lat="46.44664" lon="-1.52564">
        <ele>15</ele>
        <time>2012-02-15T15:03:00Z</time>
      </trkpt>
      <trkpt lat="46.44681" lon="-1.52561">
        <ele>16</ele>
        <time>2012-02-15T15:03:17Z</time>
      </trkpt>
      <trkpt lat="46.44698" lon="-1.52557">
        <ele>16</ele>
        <time>2012-02-15T15:03:28Z</time>
      </trkpt>
      <trkpt lat="46.44711" lon="-1.52554">
        <ele>16</ele>
        <time>2012-02-15T15:03:42Z</time>
      </trkpt>
      <trkpt lat="46.44733" lon="-1.52551">
        <ele>16</ele>
        <time>2012-02-15T15:03:56Z</time>
      </trkpt>
      <trkpt lat="46.44747" lon="-1.52548">
        <ele>17</ele>
        <time>2012-02-15T15:04:15Z</time>
      </trkpt>
      <trkpt lat="46.4476" lon="-1.52545">
        <ele>18</ele>
        <time>2012-02-15T15:04:32Z</time>
      </trkpt>
      <trkpt lat="46.44777" lon="-1.52541">
        <ele>18</ele>
        <time>2012-02-15T15:04:49Z</time>
      </trkpt>
      <trkpt lat="46.44791" lon="-1.52524">
        <ele>18</ele>
        <time>2012-02-15T15:05:03Z</time>
      </trkpt>
      <trkpt lat="46.44803" lon="-1.52524">
        <ele>18</ele>
        <time>2012-02-15T15:05:20Z</time>
      </trkpt>
      <trkpt lat="46.44809" lon="-1.52532">
        <ele>18</ele>
        <time>2012-02-15T15:05:38Z</time>
      </trkpt>
      <trkpt lat="46.44808" lon="-1.52533">
        <ele>18</ele>
        <time>2012-02-15T15:05:58Z</time>
      </trkpt>
    </trkseg>
  </trk>
</gpx>